Battle Creek, MI (49014)

2:01 PM EDT on April 19, 2015 (GMT -0400)
Wattles Park | | Change Station
CLOSE
Current Station
Personal Weather Station
Location: Battle Creek, MI
Elevation: 903 ft
Nearby Weather Stations

Elev 903 ft 42.32 °N, 85.11 °W | Updated 8 seconds ago

Partly Cloudy
Partly Cloudy
68.8 °F
Feels Like 68.8 °F
N
2.0
Wind Variable Wind from East
Gusts 16.0 mph

Today
High -- | Low -- °F
--% Chance of Precip.
Yesterday
High -- | Low -- °F
Precip. -- in
6:53 AM 8:26 PM
New Moon, 1% visible
Pressure 29.75 in
Visibility 10.0 miles
Clouds Clear
Dew Point 36 °F
Humidity 30%
Rainfall 0.00 in
Snow Depth Not available.
UV 9 out of 12
Pollen 8.80 out of 12
Air Quality Not available.
Flu Activity Regional
METAR KBTL 191753Z 11011G23KT 10SM CLR 21/01 A2975 RMK AO2 SLP073 T02110006 10211 20100 58048

More Conditions Fewer Conditions

Pressure 29.75 in
Visibility 10.0 miles
Clouds Clear
Dew Point 36 °F
Humidity 30%
Rainfall 0.00 in
Snow Depth Not available.
UV 9 out of 12
Pollen 8.80 out of 12
Air Quality Not available.
Flu Activity Regional
METAR KBTL 191753Z 11011G23KT 10SM CLR 21/01 A2975 RMK AO2 SLP073 T02110006 10211 20100 58048

More Conditions Fewer Conditions

10-Day Weather Forecast

Almanac

Astronomy

Apr. 19, 2015 Rise Set
Actual Time
Civil Twilight
Nautical Twilight
Astronomical Twilight
Moon
Length of Visible Light
Length of Day
Tomorrow will be .
, % of the Moon is Illuminated

Today's Extremes

State Highs State Lows

Community

WunderPhotos

Upload Photos

1,814,888 photos uploaded!

WunderBlogs® & News

Nearby

Air Quality

  Air Quality AQ Index Pollutant
Not available.

Snow Depth

Station Depth Elevation

Earthquake Activity

City Distance Mag. Time & Date
Minimum magnitude displayed is 2.5.

Coastal Water Temperatures

Place Temperature

Stations

Nearby Weather Stations

Station Location Temp. Windchill Dew Point Humidity Wind Precip. Elev Updated Type